sensor_id;sensor_type;location;lat;lon;timestamp;temperature;humidity
24844;DHT22;12921;51.392;12.240;2022-09-09T00:04:32;12.90;99.90
24844;DHT22;12921;51.392;12.240;2022-09-09T00:09:59;13.00;99.90
24844;DHT22;12921;51.392;12.240;2022-09-09T00:12:34;13.00;99.90
24844;DHT22;12921;51.392;12.240;2022-09-09T00:15:12;13.10;99.90
24844;DHT22;12921;51.392;12.240;2022-09-09T00:17:47;13.10;99.90
24844;DHT22;12921;51.392;12.240;2022-09-09T00:23:28;13.20;99.90
24844;DHT22;12921;51.392;12.240;2022-09-09T00:26:11;13.30;99.90
24844;DHT22;12921;51.392;12.240;2022-09-09T00:28:48;13.40;99.90
24844;DHT22;12921;51.392;12.240;2022-09-09T00:31:18;13.50;99.90
24844;DHT22;12921;51.392;12.240;2022-09-09T00:33:46;13.50;99.90
24844;DHT22;12921;51.392;12.240;2022-09-09T00:36:15;13.50;99.90
24844;DHT22;12921;51.392;12.240;2022-09-09T00:38:47;13.60;99.90
24844;DHT22;12921;51.392;12.240;2022-09-09T00:53:08;13.60;99.90
24844;DHT22;12921;51.392;12.240;2022-09-09T00:58:21;13.60;99.90
24844;DHT22;12921;51.392;12.240;2022-09-09T01:01:11;13.60;99.90
24844;DHT22;12921;51.392;12.240;2022-09-09T01:03:55;13.50;99.90
24844;DHT22;12921;51.392;12.240;2022-09-09T01:06:28;13.60;99.90
24844;DHT22;12921;51.392;12.240;2022-09-09T01:09:15;13.50;99.90
24844;DHT22;12921;51.392;12.240;2022-09-09T01:14:33;13.40;99.90
24844;DHT22;12921;51.392;12.240;2022-09-09T01:25:29;13.30;99.90
24844;DHT22;12921;51.392;12.240;2022-09-09T01:28:03;13.30;99.90
24844;DHT22;12921;51.392;12.240;2022-09-09T01:30:31;13.30;99.90
24844;DHT22;12921;51.392;12.240;2022-09-09T01:32:58;13.20;99.90
24844;DHT22;12921;51.392;12.240;2022-09-09T01:37:51;13.10;99.90
24844;DHT22;12921;51.392;12.240;2022-09-09T01:40:17;13.10;99.90
24844;DHT22;12921;51.392;12.240;2022-09-09T01:42:43;13.00;99.90
24844;DHT22;12921;51.392;12.240;2022-09-09T01:45:09;13.00;99.90
24844;DHT22;12921;51.392;12.240;2022-09-09T01:47:35;13.00;99.90
24844;DHT22;12921;51.392;12.240;2022-09-09T01:50:01;13.00;99.90
24844;DHT22;12921;51.392;12.240;2022-09-09T01:52:29;12.90;99.90
24844;DHT22;12921;51.392;12.240;2022-09-09T01:54:55;12.80;99.90
24844;DHT22;12921;51.392;12.240;2022-09-09T02:05:54;12.70;99.90
24844;DHT22;12921;51.392;12.240;2022-09-09T02:08:26;12.70;99.90
24844;DHT22;12921;51.392;12.240;2022-09-09T02:10:59;12.60;99.90
24844;DHT22;12921;51.392;12.240;2022-09-09T02:13:28;12.60;99.90
24844;DHT22;12921;51.392;12.240;2022-09-09T02:16:26;12.60;99.90
24844;DHT22;12921;51.392;12.240;2022-09-09T02:19:13;12.60;99.90
24844;DHT22;12921;51.392;12.240;2022-09-09T02:21:43;12.60;99.90
24844;DHT22;12921;51.392;12.240;2022-09-09T02:24:11;12.50;99.90
24844;DHT22;12921;51.392;12.240;2022-09-09T02:26:40;12.50;99.90
24844;DHT22;12921;51.392;12.240;2022-09-09T02:29:12;12.60;99.90
24844;DHT22;12921;51.392;12.240;2022-09-09T02:31:41;12.60;99.90
24844;DHT22;12921;51.392;12.240;2022-09-09T02:34:09;12.60;99.90
24844;DHT22;12921;51.392;12.240;2022-09-09T02:36:38;12.60;99.90
24844;DHT22;12921;51.392;12.240;2022-09-09T02:39:07;12.60;99.90
24844;DHT22;12921;51.392;12.240;2022-09-09T02:41:40;12.60;99.90
24844;DHT22;12921;51.392;12.240;2022-09-09T02:44:15;12.60;99.90
24844;DHT22;12921;51.392;12.240;2022-09-09T02:47:09;12.60;99.90
24844;DHT22;12921;51.392;12.240;2022-09-09T02:52:15;12.70;99.90
24844;DHT22;12921;51.392;12.240;2022-09-09T02:54:41;12.70;99.90
24844;DHT22;12921;51.392;12.240;2022-09-09T02:57:27;12.70;99.90
24844;DHT22;12921;51.392;12.240;2022-09-09T02:59:57;12.70;99.90
24844;DHT22;12921;51.392;12.240;2022-09-09T03:02:23;12.70;99.90
24844;DHT22;12921;51.392;12.240;2022-09-09T03:04:51;12.70;99.90
24844;DHT22;12921;51.392;12.240;2022-09-09T03:07:18;12.70;99.90
24844;DHT22;12921;51.392;12.240;2022-09-09T03:09:44;12.70;99.90
24844;DHT22;12921;51.392;12.240;2022-09-09T03:12:10;12.60;99.90
24844;DHT22;12921;51.392;12.240;2022-09-09T03:14:37;12.60;99.90
24844;DHT22;12921;51.392;12.240;2022-09-09T03:17:04;12.60;99.90
24844;DHT22;12921;51.392;12.240;2022-09-09T03:19:30;12.60;99.90
24844;DHT22;12921;51.392;12.240;2022-09-09T03:21:57;12.60;99.90
24844;DHT22;12921;51.392;12.240;2022-09-09T03:24:22;12.60;99.90
24844;DHT22;12921;51.392;12.240;2022-09-09T03:26:48;12.60;99.90
24844;DHT22;12921;51.392;12.240;2022-09-09T03:29:16;12.50;99.90
24844;DHT22;12921;51.392;12.240;2022-09-09T03:31:42;12.50;99.90
24844;DHT22;12921;51.392;12.240;2022-09-09T03:34:08;12.50;99.90
24844;DHT22;12921;51.392;12.240;2022-09-09T03:36:34;12.40;99.90
24844;DHT22;12921;51.392;12.240;2022-09-09T03:39:00;12.40;99.90
24844;DHT22;12921;51.392;12.240;2022-09-09T03:41:26;12.40;99.90
24844;DHT22;12921;51.392;12.240;2022-09-09T03:43:53;12.30;99.90
24844;DHT22;12921;51.392;12.240;2022-09-09T03:46:20;12.30;99.90
24844;DHT22;12921;51.392;12.240;2022-09-09T03:48:46;12.30;99.90
24844;DHT22;12921;51.392;12.240;2022-09-09T03:51:12;12.30;99.90
24844;DHT22;12921;51.392;12.240;2022-09-09T03:53:38;12.40;99.90
24844;DHT22;12921;51.392;12.240;2022-09-09T03:56:05;12.40;99.90
24844;DHT22;12921;51.392;12.240;2022-09-09T03:58:33;12.40;99.90
24844;DHT22;12921;51.392;12.240;2022-09-09T04:01:01;12.40;99.90
24844;DHT22;12921;51.392;12.240;2022-09-09T04:03:27;12.40;99.90
24844;DHT22;12921;51.392;12.240;2022-09-09T04:05:55;12.40;99.90
24844;DHT22;12921;51.392;12.240;2022-09-09T04:08:21;12.30;99.90
24844;DHT22;12921;51.392;12.240;2022-09-09T04:10:48;12.30;99.90
24844;DHT22;12921;51.392;12.240;2022-09-09T04:13:15;12.20;99.90
24844;DHT22;12921;51.392;12.240;2022-09-09T04:15:44;12.20;99.90
24844;DHT22;12921;51.392;12.240;2022-09-09T04:18:15;12.20;99.90
24844;DHT22;12921;51.392;12.240;2022-09-09T04:20:41;12.20;99.90
24844;DHT22;12921;51.392;12.240;2022-09-09T04:23:09;12.20;99.90
24844;DHT22;12921;51.392;12.240;2022-09-09T04:25:34;12.30;99.90
24844;DHT22;12921;51.392;12.240;2022-09-09T04:28:00;12.30;99.90
24844;DHT22;12921;51.392;12.240;2022-09-09T04:30:26;12.40;99.90
24844;DHT22;12921;51.392;12.240;2022-09-09T04:32:52;12.50;99.90
24844;DHT22;12921;51.392;12.240;2022-09-09T04:35:18;12.50;99.90
24844;DHT22;12921;51.392;12.240;2022-09-09T04:37:45;12.60;99.90
24844;DHT22;12921;51.392;12.240;2022-09-09T04:40:11;12.70;99.90
24844;DHT22;12921;51.392;12.240;2022-09-09T04:42:38;12.80;99.90
24844;DHT22;12921;51.392;12.240;2022-09-09T04:45:05;12.90;99.90
24844;DHT22;12921;51.392;12.240;2022-09-09T04:47:31;13.00;99.90
24844;DHT22;12921;51.392;12.240;2022-09-09T04:49:57;13.10;99.90
24844;DHT22;12921;51.392;12.240;2022-09-09T04:52:22;13.20;99.90
24844;DHT22;12921;51.392;12.240;2022-09-09T04:54:48;13.40;99.90
24844;DHT22;12921;51.392;12.240;2022-09-09T04:57:13;13.60;99.90
24844;DHT22;12921;51.392;12.240;2022-09-09T04:59:39;13.70;99.90
24844;DHT22;12921;51.392;12.240;2022-09-09T05:02:05;13.70;99.90
24844;DHT22;12921;51.392;12.240;2022-09-09T05:04:31;13.70;99.90
24844;DHT22;12921;51.392;12.240;2022-09-09T05:06:58;13.70;99.90
24844;DHT22;12921;51.392;12.240;2022-09-09T05:09:24;13.70;99.90
24844;DHT22;12921;51.392;12.240;2022-09-09T05:11:50;13.70;99.90
24844;DHT22;12921;51.392;12.240;2022-09-09T05:14:17;13.80;99.90
24844;DHT22;12921;51.392;12.240;2022-09-09T05:16:44;13.80;99.90
24844;DHT22;12921;51.392;12.240;2022-09-09T05:19:10;13.90;99.90
24844;DHT22;12921;51.392;12.240;2022-09-09T05:21:37;14.10;99.90
24844;DHT22;12921;51.392;12.240;2022-09-09T05:24:02;14.10;99.90
24844;DHT22;12921;51.392;12.240;2022-09-09T05:26:28;14.20;99.90
24844;DHT22;12921;51.392;12.240;2022-09-09T05:28:55;14.20;99.90
24844;DHT22;12921;51.392;12.240;2022-09-09T05:31:21;14.30;99.90
24844;DHT22;12921;51.392;12.240;2022-09-09T05:33:47;14.30;99.90
24844;DHT22;12921;51.392;12.240;2022-09-09T05:36:20;14.30;99.90
24844;DHT22;12921;51.392;12.240;2022-09-09T05:38:46;14.30;99.90
24844;DHT22;12921;51.392;12.240;2022-09-09T05:41:13;14.30;99.90
24844;DHT22;12921;51.392;12.240;2022-09-09T05:43:41;14.40;99.90
24844;DHT22;12921;51.392;12.240;2022-09-09T05:46:14;14.40;99.90
24844;DHT22;12921;51.392;12.240;2022-09-09T05:48:42;14.40;99.90
24844;DHT22;12921;51.392;12.240;2022-09-09T05:51:10;14.50;99.90
24844;DHT22;12921;51.392;12.240;2022-09-09T05:53:38;14.50;99.90
24844;DHT22;12921;51.392;12.240;2022-09-09T05:56:10;14.60;99.90
24844;DHT22;12921;51.392;12.240;2022-09-09T05:58:36;14.60;99.90
24844;DHT22;12921;51.392;12.240;2022-09-09T06:01:11;14.60;99.90
24844;DHT22;12921;51.392;12.240;2022-09-09T06:03:38;14.60;99.90
24844;DHT22;12921;51.392;12.240;2022-09-09T06:06:06;14.70;99.90
24844;DHT22;12921;51.392;12.240;2022-09-09T06:08:33;14.80;99.90
24844;DHT22;12921;51.392;12.240;2022-09-09T06:11:04;14.80;99.90
24844;DHT22;12921;51.392;12.240;2022-09-09T06:13:31;14.90;99.90
24844;DHT22;12921;51.392;12.240;2022-09-09T06:15:57;15.00;99.90
24844;DHT22;12921;51.392;12.240;2022-09-09T06:18:24;15.10;99.90
24844;DHT22;12921;51.392;12.240;2022-09-09T06:20:57;15.20;99.90
24844;DHT22;12921;51.392;12.240;2022-09-09T06:23:24;15.30;99.90
24844;DHT22;12921;51.392;12.240;2022-09-09T06:25:50;15.40;99.90
24844;DHT22;12921;51.392;12.240;2022-09-09T06:28:16;15.50;99.90
24844;DHT22;12921;51.392;12.240;2022-09-09T06:30:42;15.60;99.90
24844;DHT22;12921;51.392;12.240;2022-09-09T06:33:08;15.60;99.90
24844;DHT22;12921;51.392;12.240;2022-09-09T06:35:35;15.70;99.90
24844;DHT22;12921;51.392;12.240;2022-09-09T06:38:00;15.80;99.90
24844;DHT22;12921;51.392;12.240;2022-09-09T06:40:26;15.90;99.90
24844;DHT22;12921;51.392;12.240;2022-09-09T06:42:51;16.00;99.90
24844;DHT22;12921;51.392;12.240;2022-09-09T06:45:17;16.10;99.90
24844;DHT22;12921;51.392;12.240;2022-09-09T06:47:43;16.20;99.90
24844;DHT22;12921;51.392;12.240;2022-09-09T06:50:09;16.30;99.90
24844;DHT22;12921;51.392;12.240;2022-09-09T06:52:36;16.40;99.90
24844;DHT22;12921;51.392;12.240;2022-09-09T06:55:02;16.50;99.90
24844;DHT22;12921;51.392;12.240;2022-09-09T06:57:29;16.60;99.90
24844;DHT22;12921;51.392;12.240;2022-09-09T06:59:54;16.70;99.90
24844;DHT22;12921;51.392;12.240;2022-09-09T07:02:20;16.80;99.90
24844;DHT22;12921;51.392;12.240;2022-09-09T07:04:46;17.00;99.90
24844;DHT22;12921;51.392;12.240;2022-09-09T07:07:12;17.20;99.90
24844;DHT22;12921;51.392;12.240;2022-09-09T07:09:40;17.50;99.90
24844;DHT22;12921;51.392;12.240;2022-09-09T07:12:06;17.80;99.90
24844;DHT22;12921;51.392;12.240;2022-09-09T07:14:32;18.00;99.90
24844;DHT22;12921;51.392;12.240;2022-09-09T07:16:59;18.40;99.90
24844;DHT22;12921;51.392;12.240;2022-09-09T07:19:25;18.70;99.90
24844;DHT22;12921;51.392;12.240;2022-09-09T07:21:51;19.00;99.90
24844;DHT22;12921;51.392;12.240;2022-09-09T07:24:17;19.30;99.90
24844;DHT22;12921;51.392;12.240;2022-09-09T07:26:43;19.80;99.90
24844;DHT22;12921;51.392;12.240;2022-09-09T07:29:09;20.20;99.90
24844;DHT22;12921;51.392;12.240;2022-09-09T07:31:37;20.80;99.90
24844;DHT22;12921;51.392;12.240;2022-09-09T07:34:04;21.20;99.90
24844;DHT22;12921;51.392;12.240;2022-09-09T07:36:32;21.50;99.90
24844;DHT22;12921;51.392;12.240;2022-09-09T07:39:00;21.90;99.90
24844;DHT22;12921;51.392;12.240;2022-09-09T07:41:33;22.10;99.90
24844;DHT22;12921;51.392;12.240;2022-09-09T07:44:03;22.10;99.90
24844;DHT22;12921;51.392;12.240;2022-09-09T07:46:29;22.00;99.90
24844;DHT22;12921;51.392;12.240;2022-09-09T07:48:56;22.10;99.90
24844;DHT22;12921;51.392;12.240;2022-09-09T07:51:31;22.10;99.90
24844;DHT22;12921;51.392;12.240;2022-09-09T07:53:59;22.20;99.90
24844;DHT22;12921;51.392;12.240;2022-09-09T07:56:26;22.30;99.90
24844;DHT22;12921;51.392;12.240;2022-09-09T07:58:53;22.40;99.90
24844;DHT22;12921;51.392;12.240;2022-09-09T08:01:25;22.30;99.90
24844;DHT22;12921;51.392;12.240;2022-09-09T08:04:02;22.30;99.90
24844;DHT22;12921;51.392;12.240;2022-09-09T08:06:31;22.20;99.90
24844;DHT22;12921;51.392;12.240;2022-09-09T08:08:58;22.30;99.90
24844;DHT22;12921;51.392;12.240;2022-09-09T08:11:26;22.30;99.90
24844;DHT22;12921;51.392;12.240;2022-09-09T08:13:53;22.40;99.90
24844;DHT22;12921;51.392;12.240;2022-09-09T08:16:26;22.60;99.90
24844;DHT22;12921;51.392;12.240;2022-09-09T08:18:57;22.60;99.90
24844;DHT22;12921;51.392;12.240;2022-09-09T08:21:28;22.40;99.90
24844;DHT22;12921;51.392;12.240;2022-09-09T08:24:01;22.30;99.90
24844;DHT22;12921;51.392;12.240;2022-09-09T08:26:47;22.00;99.90
24844;DHT22;12921;51.392;12.240;2022-09-09T08:29:16;21.80;99.90
24844;DHT22;12921;51.392;12.240;2022-09-09T08:31:45;21.90;99.90
24844;DHT22;12921;51.392;12.240;2022-09-09T08:34:13;22.10;99.90
24844;DHT22;12921;51.392;12.240;2022-09-09T08:36:41;22.30;99.90
24844;DHT22;12921;51.392;12.240;2022-09-09T08:39:12;22.60;99.90
24844;DHT22;12921;51.392;12.240;2022-09-09T08:49:44;23.30;99.90
24844;DHT22;12921;51.392;12.240;2022-09-09T08:52:22;23.30;99.90
24844;DHT22;12921;51.392;12.240;2022-09-09T08:54:49;23.70;99.90
24844;DHT22;12921;51.392;12.240;2022-09-09T08:57:20;23.70;99.90
24844;DHT22;12921;51.392;12.240;2022-09-09T08:59:46;24.10;99.90
24844;DHT22;12921;51.392;12.240;2022-09-09T09:02:20;24.30;99.90
24844;DHT22;12921;51.392;12.240;2022-09-09T09:04:58;24.40;99.90
24844;DHT22;12921;51.392;12.240;2022-09-09T09:10:10;24.60;99.90
24844;DHT22;12921;51.392;12.240;2022-09-09T09:12:43;24.80;99.90
24844;DHT22;12921;51.392;12.240;2022-09-09T09:15:39;24.90;99.90
24844;DHT22;12921;51.392;12.240;2022-09-09T09:18:10;25.20;99.90
24844;DHT22;12921;51.392;12.240;2022-09-09T09:21:04;25.50;99.90
24844;DHT22;12921;51.392;12.240;2022-09-09T09:23:51;25.40;99.90
24844;DHT22;12921;51.392;12.240;2022-09-09T09:26:19;25.30;99.90
24844;DHT22;12921;51.392;12.240;2022-09-09T09:28:49;25.20;99.90
24844;DHT22;12921;51.392;12.240;2022-09-09T09:31:15;25.00;99.90
24844;DHT22;12921;51.392;12.240;2022-09-09T09:33:55;24.80;99.90
24844;DHT22;12921;51.392;12.240;2022-09-09T09:36:53;24.60;99.90
24844;DHT22;12921;51.392;12.240;2022-09-09T09:39:28;24.30;99.90
24844;DHT22;12921;51.392;12.240;2022-09-09T09:41:54;24.10;99.90
24844;DHT22;12921;51.392;12.240;2022-09-09T09:44:28;24.10;99.90
24844;DHT22;12921;51.392;12.240;2022-09-09T09:47:12;24.10;99.90
24844;DHT22;12921;51.392;12.240;2022-09-09T09:49:39;24.40;99.90
24844;DHT22;12921;51.392;12.240;2022-09-09T09:52:06;24.80;99.90
24844;DHT22;12921;51.392;12.240;2022-09-09T09:54:41;25.30;99.90
24844;DHT22;12921;51.392;12.240;2022-09-09T09:57:15;25.70;99.90
24844;DHT22;12921;51.392;12.240;2022-09-09T09:59:42;25.90;99.90
24844;DHT22;12921;51.392;12.240;2022-09-09T10:02:21;26.10;99.90
24844;DHT22;12921;51.392;12.240;2022-09-09T10:05:08;26.40;99.90
24844;DHT22;12921;51.392;12.240;2022-09-09T10:07:40;26.50;99.90
24844;DHT22;12921;51.392;12.240;2022-09-09T10:10:15;26.60;99.90
24844;DHT22;12921;51.392;12.240;2022-09-09T10:13:05;26.80;99.90
24844;DHT22;12921;51.392;12.240;2022-09-09T10:16:01;26.90;99.90
24844;DHT22;12921;51.392;12.240;2022-09-09T10:54:22;25.80;99.90
24844;DHT22;12921;51.392;12.240;2022-09-09T10:57:00;25.80;99.90
24844;DHT22;12921;51.392;12.240;2022-09-09T10:59:35;25.60;99.90
24844;DHT22;12921;51.392;12.240;2022-09-09T11:02:16;25.50;99.90
24844;DHT22;12921;51.392;12.240;2022-09-09T11:04:50;25.40;99.90
24844;DHT22;12921;51.392;12.240;2022-09-09T11:07:31;25.40;99.90
24844;DHT22;12921;51.392;12.240;2022-09-09T11:10:02;25.60;99.90
24844;DHT22;12921;51.392;12.240;2022-09-09T11:12:36;25.80;99.90
24844;DHT22;12921;51.392;12.240;2022-09-09T11:15:31;25.80;99.90
24844;DHT22;12921;51.392;12.240;2022-09-09T11:18:01;25.80;99.90
24844;DHT22;12921;51.392;12.240;2022-09-09T11:20:28;25.90;99.90
24844;DHT22;12921;51.392;12.240;2022-09-09T11:23:35;26.00;99.90
24844;DHT22;12921;51.392;12.240;2022-09-09T11:26:04;25.90;99.90
24844;DHT22;12921;51.392;12.240;2022-09-09T11:31:46;25.50;99.90
24844;DHT22;12921;51.392;12.240;2022-09-09T11:37:04;25.30;99.90
24844;DHT22;12921;51.392;12.240;2022-09-09T11:39:50;25.40;99.90
24844;DHT22;12921;51.392;12.240;2022-09-09T11:42:23;25.80;99.90
24844;DHT22;12921;51.392;12.240;2022-09-09T11:44:49;26.40;99.90
24844;DHT22;12921;51.392;12.240;2022-09-09T11:49:47;27.00;99.90
24844;DHT22;12921;51.392;12.240;2022-09-09T11:52:41;26.90;99.90
24844;DHT22;12921;51.392;12.240;2022-09-09T11:58:00;26.80;99.90
24844;DHT22;12921;51.392;12.240;2022-09-09T12:00:46;26.70;99.90
24844;DHT22;12921;51.392;12.240;2022-09-09T12:03:35;26.40;99.90
24844;DHT22;12921;51.392;12.240;2022-09-09T12:06:32;26.10;99.90
24844;DHT22;12921;51.392;12.240;2022-09-09T12:14:54;25.90;99.90
24844;DHT22;12921;51.392;12.240;2022-09-09T12:17:24;26.10;99.90
24844;DHT22;12921;51.392;12.240;2022-09-09T12:28:17;26.40;99.90
24844;DHT22;12921;51.392;12.240;2022-09-09T12:31:11;26.60;99.90
24844;DHT22;12921;51.392;12.240;2022-09-09T12:33:44;26.70;99.90
24844;DHT22;12921;51.392;12.240;2022-09-09T12:36:31;26.80;99.90
24844;DHT22;12921;51.392;12.240;2022-09-09T12:39:17;26.80;99.90
24844;DHT22;12921;51.392;12.240;2022-09-09T12:41:51;26.80;99.90
24844;DHT22;12921;51.392;12.240;2022-09-09T12:44:23;26.80;99.90
24844;DHT22;12921;51.392;12.240;2022-09-09T12:46:50;26.80;99.90
24844;DHT22;12921;51.392;12.240;2022-09-09T12:51:54;26.80;99.90
24844;DHT22;12921;51.392;12.240;2022-09-09T12:54:22;26.80;99.90
24844;DHT22;12921;51.392;12.240;2022-09-09T12:56:49;26.70;99.90
24844;DHT22;12921;51.392;12.240;2022-09-09T12:59:38;26.90;99.90
24844;DHT22;12921;51.392;12.240;2022-09-09T13:02:26;27.10;99.90
24844;DHT22;12921;51.392;12.240;2022-09-09T13:04:53;27.40;99.90
24844;DHT22;12921;51.392;12.240;2022-09-09T13:07:20;27.60;99.90
24844;DHT22;12921;51.392;12.240;2022-09-09T13:09:48;27.60;99.90
24844;DHT22;12921;51.392;12.240;2022-09-09T13:12:22;27.60;99.90
24844;DHT22;12921;51.392;12.240;2022-09-09T13:14:55;27.80;99.90
24844;DHT22;12921;51.392;12.240;2022-09-09T13:17:26;27.70;99.90
24844;DHT22;12921;51.392;12.240;2022-09-09T13:19:54;27.40;99.90
24844;DHT22;12921;51.392;12.240;2022-09-09T13:24:47;27.20;99.90
24844;DHT22;12921;51.392;12.240;2022-09-09T13:27:28;27.00;99.90
24844;DHT22;12921;51.392;12.240;2022-09-09T13:29:57;27.00;99.90
24844;DHT22;12921;51.392;12.240;2022-09-09T13:32:25;27.00;99.90
24844;DHT22;12921;51.392;12.240;2022-09-09T13:34:57;26.80;99.90
24844;DHT22;12921;51.392;12.240;2022-09-09T13:37:26;26.50;99.90
24844;DHT22;12921;51.392;12.240;2022-09-09T13:39:54;26.30;99.90
24844;DHT22;12921;51.392;12.240;2022-09-09T13:42:27;25.90;99.90
24844;DHT22;12921;51.392;12.240;2022-09-09T13:44:55;25.60;99.90
24844;DHT22;12921;51.392;12.240;2022-09-09T13:47:36;25.50;99.90
24844;DHT22;12921;51.392;12.240;2022-09-09T13:52:50;25.30;99.90
24844;DHT22;12921;51.392;12.240;2022-09-09T13:55:17;25.20;99.90
24844;DHT22;12921;51.392;12.240;2022-09-09T13:58:00;25.10;99.90
24844;DHT22;12921;51.392;12.240;2022-09-09T14:00:28;25.00;99.90
24844;DHT22;12921;51.392;12.240;2022-09-09T14:02:54;24.90;99.90
24844;DHT22;12921;51.392;12.240;2022-09-09T14:05:22;24.80;99.90
24844;DHT22;12921;51.392;12.240;2022-09-09T14:07:48;24.80;99.90
24844;DHT22;12921;51.392;12.240;2022-09-09T14:10:14;24.80;99.90
24844;DHT22;12921;51.392;12.240;2022-09-09T14:12:40;24.80;99.90
24844;DHT22;12921;51.392;12.240;2022-09-09T14:15:09;24.70;99.90
24844;DHT22;12921;51.392;12.240;2022-09-09T14:17:35;24.40;99.90
24844;DHT22;12921;51.392;12.240;2022-09-09T14:20:05;24.30;99.90
24844;DHT22;12921;51.392;12.240;2022-09-09T14:22:34;24.00;99.90
24844;DHT22;12921;51.392;12.240;2022-09-09T14:24:59;23.90;99.90
24844;DHT22;12921;51.392;12.240;2022-09-09T14:27:25;23.80;99.90
24844;DHT22;12921;51.392;12.240;2022-09-09T14:29:55;23.70;99.90
24844;DHT22;12921;51.392;12.240;2022-09-09T14:32:21;23.70;99.90
24844;DHT22;12921;51.392;12.240;2022-09-09T14:34:47;23.80;99.90
24844;DHT22;12921;51.392;12.240;2022-09-09T14:37:15;23.70;99.90
24844;DHT22;12921;51.392;12.240;2022-09-09T14:39:42;23.70;99.90
24844;DHT22;12921;51.392;12.240;2022-09-09T14:42:12;23.80;99.90
24844;DHT22;12921;51.392;12.240;2022-09-09T14:44:38;23.80;99.90
24844;DHT22;12921;51.392;12.240;2022-09-09T14:47:05;23.80;99.90
24844;DHT22;12921;51.392;12.240;2022-09-09T14:49:31;23.80;99.90
24844;DHT22;12921;51.392;12.240;2022-09-09T14:51:56;23.90;99.90
24844;DHT22;12921;51.392;12.240;2022-09-09T14:54:22;24.00;99.90
24844;DHT22;12921;51.392;12.240;2022-09-09T14:56:48;24.20;99.90
24844;DHT22;12921;51.392;12.240;2022-09-09T14:59:14;24.40;99.90
24844;DHT22;12921;51.392;12.240;2022-09-09T15:01:40;24.60;99.90
24844;DHT22;12921;51.392;12.240;2022-09-09T15:04:06;24.90;99.90
24844;DHT22;12921;51.392;12.240;2022-09-09T15:06:34;25.20;99.90
24844;DHT22;12921;51.392;12.240;2022-09-09T15:09:02;25.40;99.90
24844;DHT22;12921;51.392;12.240;2022-09-09T15:11:29;25.60;99.90
24844;DHT22;12921;51.392;12.240;2022-09-09T15:13:56;25.80;99.90
24844;DHT22;12921;51.392;12.240;2022-09-09T15:16:25;26.00;99.90
24844;DHT22;12921;51.392;12.240;2022-09-09T15:18:53;26.20;99.90
24844;DHT22;12921;51.392;12.240;2022-09-09T15:21:21;26.20;99.90
24844;DHT22;12921;51.392;12.240;2022-09-09T15:23:48;26.20;99.90
24844;DHT22;12921;51.392;12.240;2022-09-09T15:26:14;26.00;99.90
24844;DHT22;12921;51.392;12.240;2022-09-09T15:28:41;26.10;99.90
24844;DHT22;12921;51.392;12.240;2022-09-09T15:31:32;26.00;99.90
24844;DHT22;12921;51.392;12.240;2022-09-09T15:34:00;25.90;99.90
24844;DHT22;12921;51.392;12.240;2022-09-09T15:38:58;25.80;99.90
24844;DHT22;12921;51.392;12.240;2022-09-09T15:41:25;25.80;99.90
24844;DHT22;12921;51.392;12.240;2022-09-09T15:43:52;25.60;99.90
24844;DHT22;12921;51.392;12.240;2022-09-09T15:46:23;25.40;99.90
24844;DHT22;12921;51.392;12.240;2022-09-09T15:48:50;25.30;99.90
24844;DHT22;12921;51.392;12.240;2022-09-09T15:51:16;25.20;99.90
24844;DHT22;12921;51.392;12.240;2022-09-09T15:53:42;25.20;99.90
24844;DHT22;12921;51.392;12.240;2022-09-09T15:56:08;25.00;99.90
24844;DHT22;12921;51.392;12.240;2022-09-09T15:58:35;24.90;99.90
24844;DHT22;12921;51.392;12.240;2022-09-09T16:01:08;24.60;99.90
24844;DHT22;12921;51.392;12.240;2022-09-09T16:03:35;24.40;99.90
24844;DHT22;12921;51.392;12.240;2022-09-09T16:06:02;24.20;99.90
24844;DHT22;12921;51.392;12.240;2022-09-09T16:08:36;24.00;99.90
24844;DHT22;12921;51.392;12.240;2022-09-09T16:11:07;23.80;99.90
24844;DHT22;12921;51.392;12.240;2022-09-09T16:13:37;23.50;99.90
24844;DHT22;12921;51.392;12.240;2022-09-09T16:16:05;23.30;99.90
24844;DHT22;12921;51.392;12.240;2022-09-09T16:18:39;23.10;99.90
24844;DHT22;12921;51.392;12.240;2022-09-09T16:21:06;23.00;99.90
24844;DHT22;12921;51.392;12.240;2022-09-09T16:23:36;22.70;99.90
24844;DHT22;12921;51.392;12.240;2022-09-09T16:26:02;22.60;99.90
24844;DHT22;12921;51.392;12.240;2022-09-09T16:28:28;22.50;99.90
24844;DHT22;12921;51.392;12.240;2022-09-09T16:30:54;22.50;99.90
24844;DHT22;12921;51.392;12.240;2022-09-09T16:33:19;22.30;99.90
24844;DHT22;12921;51.392;12.240;2022-09-09T16:35:45;22.20;99.90
24844;DHT22;12921;51.392;12.240;2022-09-09T16:38:11;22.00;99.90
24844;DHT22;12921;51.392;12.240;2022-09-09T16:40:37;21.90;99.90
24844;DHT22;12921;51.392;12.240;2022-09-09T16:43:04;21.80;99.90
24844;DHT22;12921;51.392;12.240;2022-09-09T16:45:31;21.70;99.90
24844;DHT22;12921;51.392;12.240;2022-09-09T16:47:58;21.60;99.90
24844;DHT22;12921;51.392;12.240;2022-09-09T16:50:24;21.50;99.90
24844;DHT22;12921;51.392;12.240;2022-09-09T16:52:51;21.50;99.90
24844;DHT22;12921;51.392;12.240;2022-09-09T16:55:17;21.40;99.90
24844;DHT22;12921;51.392;12.240;2022-09-09T16:57:46;21.30;99.90
24844;DHT22;12921;51.392;12.240;2022-09-09T17:00:15;21.30;99.90
24844;DHT22;12921;51.392;12.240;2022-09-09T17:02:42;21.20;99.90
24844;DHT22;12921;51.392;12.240;2022-09-09T17:05:08;21.10;99.90
24844;DHT22;12921;51.392;12.240;2022-09-09T17:07:34;21.00;99.90
24844;DHT22;12921;51.392;12.240;2022-09-09T17:10:01;20.90;99.90
24844;DHT22;12921;51.392;12.240;2022-09-09T17:12:26;20.90;99.90
24844;DHT22;12921;51.392;12.240;2022-09-09T17:14:52;20.80;99.90
24844;DHT22;12921;51.392;12.240;2022-09-09T17:17:18;20.70;99.90
24844;DHT22;12921;51.392;12.240;2022-09-09T17:19:43;20.60;99.90
24844;DHT22;12921;51.392;12.240;2022-09-09T17:22:09;20.50;99.90
24844;DHT22;12921;51.392;12.240;2022-09-09T17:24:35;20.50;99.90
24844;DHT22;12921;51.392;12.240;2022-09-09T17:27:03;20.40;99.90
24844;DHT22;12921;51.392;12.240;2022-09-09T17:29:30;20.30;99.90
24844;DHT22;12921;51.392;12.240;2022-09-09T17:31:56;20.20;99.90
24844;DHT22;12921;51.392;12.240;2022-09-09T17:34:21;20.10;99.90
24844;DHT22;12921;51.392;12.240;2022-09-09T17:36:48;20.00;99.90
24844;DHT22;12921;51.392;12.240;2022-09-09T17:39:13;19.90;99.90
24844;DHT22;12921;51.392;12.240;2022-09-09T17:41:39;19.70;99.90
24844;DHT22;12921;51.392;12.240;2022-09-09T17:44:07;19.60;99.90